Time;durP1;ratioP1;P1;durP2;ratioP2;P2;SDS_P1;SDS_P2;PMS_P1;PMS_P2;Temp;Humidity;BMP_temperature;BMP_pressure;BME280_temperature;BME280_humidity;BME280_pressure;Samples;Min_cycle;Max_cycle;Signal;HPM_P1;HPM_P2
2022/10/01 00:00:13;;;;;;;;;;;;;;;;;;5083092;28;795;-70
2022/10/01 00:02:38;;;;;;;;;;;;;;;;;;5082949;28;1199;-70
2022/10/01 00:05:05;;;;;;;;;;;;;;;;;;5082847;28;818;-70
2022/10/01 00:07:35;;;;;;;;;;;;;;;;;;5082994;28;1021;-70
2022/10/01 00:10:00;;;;;;;;;;;;;;;;;;5083446;28;1063;-70
2022/10/01 00:12:26;;;;;;;;;;;;;;;;;;5083399;28;1259;-69
2022/10/01 00:14:51;;;;;;;;;;;;;;;;;;5082842;28;783;-70
2022/10/01 00:17:16;;;;;;;;;;;;;;;;;;5083009;28;1898;-70
2022/10/01 00:19:41;;;;;;;;;;;;;;;;;;5083088;28;1036;-69
2022/10/01 00:22:06;;;;;;;;;;;;;;;;;;5083352;28;1270;-70
2022/10/01 00:24:32;;;;;;;;;;;;;;;;;;5082869;28;897;-70
2022/10/01 00:26:57;;;;;;;;;;;;;;;;;;5083196;28;795;-70
2022/10/01 00:29:22;;;;;;;;;;;;;;;;;;5082898;28;973;-70
2022/10/01 00:31:48;;;;;;;;;;;;;;;;;;5095957;22;3951;-74
2022/10/01 00:34:14;;;;;;;;;;;;;;;;;;5083007;28;1039;-74
2022/10/01 00:36:41;;;;;;;;;;;;;;;;;;5082239;28;1906;-74
2022/10/01 00:39:06;;;;;;;;;;;;;;;;;;5082699;28;838;-74
2022/10/01 00:41:33;;;;;;;;;;;;;;;;;;5082791;28;1165;-74
2022/10/01 00:43:59;;;;;;;;;;;;;;;;;;5083463;28;795;-74
2022/10/01 00:46:33;;;;;;;;;;;;;;;;;;5082752;28;826;-74
2022/10/01 00:49:05;;;;;;;;;;;;;;;;;;5082908;28;901;-74
2022/10/01 00:51:32;;;;;;;;;;;;;;;;;;5082646;28;1256;-74
2022/10/01 00:54:01;;;;;;;;;;;;;;;;;;5082784;28;1016;-74
2022/10/01 00:56:27;;;;;;;;;;;;;;;;;;5082537;28;827;-74
2022/10/01 00:58:54;;;;;;;;;;;;;;;;;;5081653;28;1961;-74
2022/10/01 01:01:20;;;;;;;;;;;;;;;;;;5082697;28;842;-74
2022/10/01 01:03:45;;;;;;;;;;;;;;;;;;5082544;28;1286;-74
2022/10/01 01:06:10;;;;;;;;;;;;;;;;;;5082176;28;1052;-75
2022/10/01 01:08:36;;;;;;;;;;;;;;;;;;5082507;28;889;-75
2022/10/01 01:11:06;;;;;;;;;;;;;;;;;;5082311;28;901;-74
2022/10/01 01:13:43;;;;;;;;;;;;;;;;;;5082495;28;1172;-74
2022/10/01 01:16:15;;;;;;;;;;;;;;;;;;5081993;28;985;-74
2022/10/01 01:18:44;;;;;;;;;;;;;;;;;;5082278;28;1914;-74
2022/10/01 01:21:19;;;;;;;;;;;;;;;;;;5082647;28;845;-74
2022/10/01 01:23:56;;;;;;;;;;;;;;;;;;5082206;28;1155;-75
2022/10/01 01:26:21;;;;;;;;;;;;;;;;;;5081773;28;913;-74
2022/10/01 01:28:49;;;;;;;;;;;;;;;;;;5082068;28;810;-75
2022/10/01 01:31:17;;;;;;;;;;;;;;;;;;5081983;28;872;-75
2022/10/01 01:33:44;;;;;;;;;;;;;;;;;;5082060;28;1253;-75
2022/10/01 01:36:15;;;;;;;;;;;;;;;;;;5081651;28;1040;-74
2022/10/01 01:38:43;;;;;;;;;;;;;;;;;;5081983;28;1976;-75
2022/10/01 01:41:09;;;;;;;;;;;;;;;;;;5082010;28;787;-75
2022/10/01 01:43:37;;;;;;;;;;;;;;;;;;5081989;28;1187;-75
2022/10/01 01:46:03;;;;;;;;;;;;;;;;;;5081418;28;1064;-75
2022/10/01 01:48:29;;;;;;;;;;;;;;;;;;5081892;28;854;-75
2022/10/01 01:51:08;;;;;;;;;;;;;;;;;;5081601;28;900;-75
2022/10/01 01:53:34;;;;;;;;;;;;;;;;;;5081841;28;1258;-75
2022/10/01 01:55:59;;;;;;;;;;;;;;;;;;5081368;28;946;-74
2022/10/01 01:58:26;;;;;;;;;;;;;;;;;;5081960;28;1898;-75
2022/10/01 02:00:52;;;;;;;;;;;;;;;;;;5081590;28;836;-74
2022/10/01 02:03:20;;;;;;;;;;;;;;;;;;5081759;28;1168;-74
2022/10/01 02:05:58;;;;;;;;;;;;;;;;;;5081825;28;845;-75
2022/10/01 02:08:33;;;;;;;;;;;;;;;;;;5081562;28;953;-74
2022/10/01 02:11:02;;;;;;;;;;;;;;;;;;5081042;28;933;-75
2022/10/01 02:13:36;;;;;;;;;;;;;;;;;;5081576;28;1140;-75
2022/10/01 02:16:21;;;;;;;;;;;;;;;;;;5081320;28;822;-75
2022/10/01 02:18:54;;;;;;;;;;;;;;;;;;5080912;28;1977;-75
2022/10/01 02:21:19;;;;;;;;;;;;;;;;;;5081191;28;952;-75
2022/10/01 02:23:49;;;;;;;;;;;;;;;;;;5081457;28;1176;-75
2022/10/01 02:26:16;;;;;;;;;;;;;;;;;;5081576;28;842;-75
2022/10/01 02:28:43;;;;;;;;;;;;;;;;;;5081385;28;913;-75
2022/10/01 02:31:09;;;;;;;;;;;;;;;;;;5081351;28;1067;-75
2022/10/01 02:33:35;;;;;;;;;;;;;;;;;;5081161;28;1179;-75
2022/10/01 02:36:02;;;;;;;;;;;;;;;;;;5081050;28;885;-75
2022/10/01 02:38:28;;;;;;;;;;;;;;;;;;5066959;28;1972;-75
2022/10/01 02:40:54;;;;;;;;;;;;;;;;;;5101504;28;1012;-75
2022/10/01 02:43:21;;;;;;;;;;;;;;;;;;5101440;28;1179;-75
2022/10/01 02:45:50;;;;;;;;;;;;;;;;;;5101129;28;1000;-75
2022/10/01 02:48:16;;;;;;;;;;;;;;;;;;5101330;28;893;-75
2022/10/01 02:50:45;;;;;;;;;;;;;;;;;;5101380;28;882;-75
2022/10/01 02:53:14;;;;;;;;;;;;;;;;;;5100969;28;1241;-75
2022/10/01 02:55:40;;;;;;;;;;;;;;;;;;5100972;28;1001;-75
2022/10/01 02:58:06;;;;;;;;;;;;;;;;;;5101451;28;1971;-75
2022/10/01 03:00:31;;;;;;;;;;;;;;;;;;5101135;28;937;-75
2022/10/01 03:02:56;;;;;;;;;;;;;;;;;;5101046;28;1153;-75
2022/10/01 03:05:21;;;;;;;;;;;;;;;;;;5100958;28;859;-75
2022/10/01 03:07:47;;;;;;;;;;;;;;;;;;5100919;28;811;-75
2022/10/01 03:10:13;;;;;;;;;;;;;;;;;;5101006;28;905;-75
2022/10/01 03:12:43;;;;;;;;;;;;;;;;;;5101098;28;1184;-75
2022/10/01 03:15:09;;;;;;;;;;;;;;;;;;5100938;28;838;-75
2022/10/01 03:17:36;;;;;;;;;;;;;;;;;;5100871;28;1975;-75
2022/10/01 03:20:01;;;;;;;;;;;;;;;;;;5100965;28;811;-75
2022/10/01 03:22:26;;;;;;;;;;;;;;;;;;5101109;28;1262;-75
2022/10/01 03:24:51;;;;;;;;;;;;;;;;;;5104481;28;981;-75
2022/10/01 03:27:17;;;;;;;;;;;;;;;;;;5104660;28;834;-75
2022/10/01 03:29:43;;;;;;;;;;;;;;;;;;5103699;28;921;-75
2022/10/01 03:32:08;;;;;;;;;;;;;;;;;;5103895;28;1175;-75
2022/10/01 03:34:33;;;;;;;;;;;;;;;;;;5103425;28;1040;-75
2022/10/01 03:36:58;;;;;;;;;;;;;;;;;;5103607;28;1909;-75
2022/10/01 03:39:23;;;;;;;;;;;;;;;;;;5103382;28;886;-75
2022/10/01 03:41:49;;;;;;;;;;;;;;;;;;5103627;28;1243;-75
2022/10/01 03:44:14;;;;;;;;;;;;;;;;;;5103673;28;845;-75
2022/10/01 03:46:39;;;;;;;;;;;;;;;;;;5103255;28;1064;-75
2022/10/01 03:49:04;;;;;;;;;;;;;;;;;;5103337;28;846;-75
2022/10/01 03:51:30;;;;;;;;;;;;;;;;;;5103355;28;1151;-75
2022/10/01 03:53:55;;;;;;;;;;;;;;;;;;5103534;28;937;-75
2022/10/01 03:56:21;;;;;;;;;;;;;;;;;;5103303;28;814;-75
2022/10/01 03:58:46;;;;;;;;;;;;;;;;;;5103477;28;1943;-75
2022/10/01 04:01:11;;;;;;;;;;;;;;;;;;5103439;28;929;-75
2022/10/01 04:03:36;;;;;;;;;;;;;;;;;;5103048;28;1179;-75
2022/10/01 04:06:01;;;;;;;;;;;;;;;;;;5103143;28;918;-75
2022/10/01 04:08:27;;;;;;;;;;;;;;;;;;5103580;28;826;-75
2022/10/01 04:10:52;;;;;;;;;;;;;;;;;;5103195;28;1074;-75
2022/10/01 04:13:17;;;;;;;;;;;;;;;;;;5103207;28;1128;-75
2022/10/01 04:15:43;;;;;;;;;;;;;;;;;;5102882;28;928;-75
2022/10/01 04:18:08;;;;;;;;;;;;;;;;;;5103314;28;1971;-75
2022/10/01 04:20:34;;;;;;;;;;;;;;;;;;5102863;28;802;-75
2022/10/01 04:22:59;;;;;;;;;;;;;;;;;;5103151;28;1108;-75
2022/10/01 04:25:25;;;;;;;;;;;;;;;;;;5102895;28;882;-75
2022/10/01 04:27:55;;;;;;;;;;;;;;;;;;5103105;28;893;-75
2022/10/01 04:30:20;;;;;;;;;;;;;;;;;;5102750;28;822;-75
2022/10/01 04:32:46;;;;;;;;;;;;;;;;;;5103003;28;1428;-75
2022/10/01 04:35:11;;;;;;;;;;;;;;;;;;5102199;28;973;-75
2022/10/01 04:37:36;;;;;;;;;;;;;;;;;;5102865;28;1901;-75
2022/10/01 04:40:02;;;;;;;;;;;;;;;;;;5102681;28;917;-75
2022/10/01 04:42:27;;;;;;;;;;;;;;;;;;5103011;28;1156;-75
2022/10/01 04:44:52;;;;;;;;;;;;;;;;;;5102468;28;1004;-75
2022/10/01 04:47:17;;;;;;;;;;;;;;;;;;5102741;28;874;-75
2022/10/01 04:49:42;;;;;;;;;;;;;;;;;;5101704;28;787;-75
2022/10/01 04:52:07;;;;;;;;;;;;;;;;;;5101485;28;1159;-75
2022/10/01 04:54:33;;;;;;;;;;;;;;;;;;5102472;28;846;-75
2022/10/01 04:56:58;;;;;;;;;;;;;;;;;;5102423;28;1894;-75
2022/10/01 04:59:24;;;;;;;;;;;;;;;;;;5102759;28;842;-75
2022/10/01 05:01:49;;;;;;;;;;;;;;;;;;5102423;28;1136;-75
2022/10/01 05:04:14;;;;;;;;;;;;;;;;;;5102428;28;828;-75
2022/10/01 05:06:40;;;;;;;;;;;;;;;;;;5101652;28;1043;-75
2022/10/01 05:09:05;;;;;;;;;;;;;;;;;;5102452;28;779;-75
2022/10/01 05:11:30;;;;;;;;;;;;;;;;;;5101878;28;1183;-75
2022/10/01 05:13:56;;;;;;;;;;;;;;;;;;5102278;28;988;-75
2022/10/01 05:16:21;;;;;;;;;;;;;;;;;;5101915;28;880;-75
2022/10/01 05:18:46;;;;;;;;;;;;;;;;;;5102218;28;1943;-75
2022/10/01 05:21:14;;;;;;;;;;;;;;;;;;5101929;28;779;-74
2022/10/01 05:23:39;;;;;;;;;;;;;;;;;;5102130;28;1250;-74
2022/10/01 05:26:04;;;;;;;;;;;;;;;;;;5101742;28;992;-74
2022/10/01 05:28:30;;;;;;;;;;;;;;;;;;5101857;28;865;-75
2022/10/01 05:30:59;;;;;;;;;;;;;;;;;;5101844;28;952;-75
2022/10/01 05:33:24;;;;;;;;;;;;;;;;;;5101715;28;1245;-75
2022/10/01 05:35:50;;;;;;;;;;;;;;;;;;5101603;28;783;-75
2022/10/01 05:38:15;;;;;;;;;;;;;;;;;;5101547;28;1969;-75
2022/10/01 05:40:43;;;;;;;;;;;;;;;;;;5101923;28;831;-75
2022/10/01 05:43:09;;;;;;;;;;;;;;;;;;5101594;28;1203;-75
2022/10/01 05:45:34;;;;;;;;;;;;;;;;;;5100669;28;798;-75
2022/10/01 05:48:00;;;;;;;;;;;;;;;;;;5101611;28;877;-75
2022/10/01 05:50:27;;;;;;;;;;;;;;;;;;5101524;28;1008;-75
2022/10/01 05:52:53;;;;;;;;;;;;;;;;;;5101714;28;1250;-75
2022/10/01 05:55:19;;;;;;;;;;;;;;;;;;5101428;28;861;-75
2022/10/01 05:57:44;;;;;;;;;;;;;;;;;;5101447;28;1956;-75
2022/10/01 06:00:11;;;;;;;;;;;;;;;;;;5101346;28;944;-75
2022/10/01 06:02:37;;;;;;;;;;;;;;;;;;5101242;28;1171;-75
2022/10/01 06:05:02;;;;;;;;;;;;;;;;;;5101024;28;814;-75
2022/10/01 06:07:30;;;;;;;;;;;;;;;;;;5101541;28;802;-75
2022/10/01 06:09:55;;;;;;;;;;;;;;;;;;5101457;28;768;-75
2022/10/01 06:12:20;;;;;;;;;;;;;;;;;;5101201;28;1292;-75
2022/10/01 06:14:45;;;;;;;;;;;;;;;;;;5101101;28;862;-75
2022/10/01 06:17:10;;;;;;;;;;;;;;;;;;5100844;28;1968;-75
2022/10/01 06:19:36;;;;;;;;;;;;;;;;;;5100937;28;992;-75
2022/10/01 06:22:01;;;;;;;;;;;;;;;;;;5101235;28;1179;-75
2022/10/01 06:24:26;;;;;;;;;;;;;;;;;;5100797;28;1020;-75
2022/10/01 06:26:51;;;;;;;;;;;;;;;;;;5100998;28;878;-75
2022/10/01 06:29:16;;;;;;;;;;;;;;;;;;5082702;28;838;-75
2022/10/01 06:31:41;;;;;;;;;;;;;;;;;;5100943;28;1174;-75
2022/10/01 06:34:07;;;;;;;;;;;;;;;;;;5201526;22;2166;-77
2022/10/01 06:36:32;;;;;;;;;;;;;;;;;;5100879;28;858;-78
2022/10/01 06:38:57;;;;;;;;;;;;;;;;;;5083243;28;1921;-77
2022/10/01 06:41:22;;;;;;;;;;;;;;;;;;5101366;28;902;-77
2022/10/01 06:43:48;;;;;;;;;;;;;;;;;;5101222;28;1231;-77
2022/10/01 06:46:13;;;;;;;;;;;;;;;;;;5101142;28;1032;-78
2022/10/01 06:48:38;;;;;;;;;;;;;;;;;;5101296;28;886;-79
2022/10/01 06:51:04;;;;;;;;;;;;;;;;;;5083857;28;1081;-78
2022/10/01 06:53:30;;;;;;;;;;;;;;;;;;5080917;28;1136;-78
2022/10/01 06:55:55;;;;;;;;;;;;;;;;;;5081146;28;937;-79
2022/10/01 06:58:23;;;;;;;;;;;;;;;;;;5084143;28;1889;-77
2022/10/01 07:00:49;;;;;;;;;;;;;;;;;;5084515;28;850;-78
2022/10/01 07:03:15;;;;;;;;;;;;;;;;;;5084283;28;1156;-77
2022/10/01 07:05:40;;;;;;;;;;;;;;;;;;5084220;28;996;-79
2022/10/01 07:08:06;;;;;;;;;;;;;;;;;;5084341;28;988;-78
2022/10/01 07:10:33;;;;;;;;;;;;;;;;;;5084362;28;835;-78
2022/10/01 07:13:08;;;;;;;;;;;;;;;;;;5084245;28;1243;-78
2022/10/01 07:15:33;;;;;;;;;;;;;;;;;;5084007;28;858;-78
2022/10/01 07:17:58;;;;;;;;;;;;;;;;;;5084701;28;2033;-78
2022/10/01 07:20:23;;;;;;;;;;;;;;;;;;5083908;28;836;-78
2022/10/01 07:22:55;;;;;;;;;;;;;;;;;;5084202;28;1228;-78
2022/10/01 07:25:20;;;;;;;;;;;;;;;;;;5083709;28;905;-79
2022/10/01 07:27:45;;;;;;;;;;;;;;;;;;5084107;28;973;-78
2022/10/01 07:30:10;;;;;;;;;;;;;;;;;;5083901;28;851;-78
2022/10/01 07:32:35;;;;;;;;;;;;;;;;;;5083964;28;1152;-77
2022/10/01 07:35:01;;;;;;;;;;;;;;;;;;5083407;28;1151;-77
2022/10/01 07:37:26;;;;;;;;;;;;;;;;;;5083891;28;1964;-78
2022/10/01 07:39:51;;;;;;;;;;;;;;;;;;5084107;28;985;-78
2022/10/01 07:42:16;;;;;;;;;;;;;;;;;;5083650;28;1282;-78
2022/10/01 07:44:42;;;;;;;;;;;;;;;;;;5083563;28;889;-79
2022/10/01 07:47:07;;;;;;;;;;;;;;;;;;5083773;28;834;-79
2022/10/01 07:49:32;;;;;;;;;;;;;;;;;;5083612;28;910;-79
2022/10/01 07:51:57;;;;;;;;;;;;;;;;;;5083778;28;865;-79
2022/10/01 07:54:23;;;;;;;;;;;;;;;;;;5083284;28;1163;-79
2022/10/01 07:56:50;;;;;;;;;;;;;;;;;;5083738;28;1890;-79
2022/10/01 07:59:15;;;;;;;;;;;;;;;;;;5083500;28;924;-78
2022/10/01 08:01:41;;;;;;;;;;;;;;;;;;5083496;28;981;-78
2022/10/01 08:06:51;;;;;;;;;;;;;;;;;;5083452;28;625;-78
2022/10/01 08:09:16;;;;;;;;;;;;;;;;;;5082918;28;858;-78
2022/10/01 08:11:41;;;;;;;;;;;;;;;;;;5083251;28;1029;-78
2022/10/01 08:14:06;;;;;;;;;;;;;;;;;;5083205;28;1188;-78
2022/10/01 08:16:39;;;;;;;;;;;;;;;;;;5082863;28;933;-78
2022/10/01 08:19:06;;;;;;;;;;;;;;;;;;5083486;28;1902;-78
2022/10/01 08:21:34;;;;;;;;;;;;;;;;;;5083154;28;1121;-78
2022/10/01 08:23:59;;;;;;;;;;;;;;;;;;5083136;28;1132;-78
2022/10/01 08:26:24;;;;;;;;;;;;;;;;;;5082968;28;823;-78
2022/10/01 08:28:49;;;;;;;;;;;;;;;;;;5083275;28;1037;-78
2022/10/01 08:31:15;;;;;;;;;;;;;;;;;;5082641;28;866;-78
2022/10/01 08:33:40;;;;;;;;;;;;;;;;;;5082867;28;1220;-78
2022/10/01 08:36:08;;;;;;;;;;;;;;;;;;5082676;28;1068;-78
2022/10/01 08:38:34;;;;;;;;;;;;;;;;;;5083000;28;1968;-79
2022/10/01 08:41:05;;;;;;;;;;;;;;;;;;5081802;28;1063;-78
2022/10/01 08:43:37;;;;;;;;;;;;;;;;;;5082677;28;1175;-77
2022/10/01 08:46:08;;;;;;;;;;;;;;;;;;5082916;28;846;-77
2022/10/01 08:48:57;;;;;;;;;;;;;;;;;;5082884;28;858;-78
2022/10/01 08:51:34;;;;;;;;;;;;;;;;;;5082718;28;886;-78
2022/10/01 08:54:02;;;;;;;;;;;;;;;;;;5082671;28;1179;-78
2022/10/01 08:56:32;;;;;;;;;;;;;;;;;;5082373;28;826;-78
2022/10/01 08:59:01;;;;;;;;;;;;;;;;;;5082725;28;1902;-78
2022/10/01 09:01:27;;;;;;;;;;;;;;;;;;5082664;28;901;-78
2022/10/01 09:03:52;;;;;;;;;;;;;;;;;;5082546;28;1266;-77
2022/10/01 09:06:21;;;;;;;;;;;;;;;;;;5082226;28;850;-77
2022/10/01 09:09:05;;;;;;;;;;;;;;;;;;5082582;28;897;-78
2022/10/01 09:11:50;;;;;;;;;;;;;;;;;;5081442;28;1708;-77
2022/10/01 09:14:15;;;;;;;;;;;;;;;;;;5082349;28;1164;-77
2022/10/01 09:16:43;;;;;;;;;;;;;;;;;;5082135;28;937;-78
2022/10/01 09:19:24;;;;;;;;;;;;;;;;;;5082370;28;1890;-77
2022/10/01 09:22:02;;;;;;;;;;;;;;;;;;5081445;28;889;-78
2022/10/01 09:24:45;;;;;;;;;;;;;;;;;;5082142;28;1196;-78
2022/10/01 09:27:15;;;;;;;;;;;;;;;;;;5086665;28;846;-80
2022/10/01 09:29:46;;;;;;;;;;;;;;;;;;5092811;28;1002;-80
2022/10/01 09:32:14;;;;;;;;;;;;;;;;;;5082412;28;1299;-78
2022/10/01 09:34:41;;;;;;;;;;;;;;;;;;5081691;28;953;-78
2022/10/01 09:37:06;;;;;;;;;;;;;;;;;;5081821;28;1947;-78
2022/10/01 09:39:41;;;;;;;;;;;;;;;;;;5082063;28;865;-79
2022/10/01 09:42:06;;;;;;;;;;;;;;;;;;5082214;28;945;-79
2022/10/01 09:44:32;;;;;;;;;;;;;;;;;;5081676;28;1200;-78
2022/10/01 09:46:58;;;;;;;;;;;;;;;;;;5082174;28;1016;-79
2022/10/01 09:49:26;;;;;;;;;;;;;;;;;;5089527;28;826;-79
2022/10/01 09:51:53;;;;;;;;;;;;;;;;;;5090498;28;1032;-79
2022/10/01 09:54:39;;;;;;;;;;;;;;;;;;5081867;28;1190;-78
2022/10/01 09:57:42;;;;;;;;;;;;;;;;;;5070975;28;1898;-78
2022/10/01 10:00:13;;;;;;;;;;;;;;;;;;5019626;28;1190;-78
2022/10/01 10:02:41;;;;;;;;;;;;;;;;;;5020319;28;1229;-77
2022/10/01 10:05:08;;;;;;;;;;;;;;;;;;5051386;28;1035;-78
2022/10/01 10:07:34;;;;;;;;;;;;;;;;;;5099218;28;798;-77
2022/10/01 10:10:20;;;;;;;;;;;;;;;;;;5097765;28;862;-78
2022/10/01 10:12:47;;;;;;;;;;;;;;;;;;5095671;28;1294;-78
2022/10/01 10:15:16;;;;;;;;;;;;;;;;;;5084762;28;1012;-78
2022/10/01 10:17:43;;;;;;;;;;;;;;;;;;5081175;28;1894;-78
2022/10/01 10:20:15;;;;;;;;;;;;;;;;;;5081439;28;853;-78
2022/10/01 10:22:40;;;;;;;;;;;;;;;;;;5081421;28;1219;-78
2022/10/01 10:25:16;;;;;;;;;;;;;;;;;;5080874;28;806;-79
2022/10/01 10:27:50;;;;;;;;;;;;;;;;;;5081234;28;902;-78
2022/10/01 10:30:16;;;;;;;;;;;;;;;;;;5081199;28;819;-78
2022/10/01 10:32:42;;;;;;;;;;;;;;;;;;5080863;28;1325;-78
2022/10/01 10:35:09;;;;;;;;;;;;;;;;;;5080978;28;1095;-79
2022/10/01 10:37:43;;;;;;;;;;;;;;;;;;5081064;28;1897;-78
2022/10/01 10:40:15;;;;;;;;;;;;;;;;;;5081005;28;997;-78
2022/10/01 10:42:46;;;;;;;;;;;;;;;;;;5081223;28;1204;-78
2022/10/01 10:45:15;;;;;;;;;;;;;;;;;;5081071;28;826;-78
2022/10/01 10:47:45;;;;;;;;;;;;;;;;;;5081162;28;980;-78
2022/10/01 10:50:21;;;;;;;;;;;;;;;;;;5080938;28;997;-79
2022/10/01 10:52:47;;;;;;;;;;;;;;;;;;5081024;28;1226;-78
2022/10/01 10:55:18;;;;;;;;;;;;;;;;;;5080427;28;989;-79
2022/10/01 10:57:43;;;;;;;;;;;;;;;;;;5080909;28;1965;-79
2022/10/01 11:00:16;;;;;;;;;;;;;;;;;;5080844;28;882;-78
2022/10/01 11:03:02;;;;;;;;;;;;;;;;;;5080749;28;1174;-78
2022/10/01 11:05:30;;;;;;;;;;;;;;;;;;5080281;28;1331;-78
2022/10/01 11:07:57;;;;;;;;;;;;;;;;;;5081029;28;833;-78
2022/10/01 11:10:40;;;;;;;;;;;;;;;;;;5080709;28;814;-79
2022/10/01 11:13:17;;;;;;;;;;;;;;;;;;5080705;28;1191;-78
2022/10/01 11:16:01;;;;;;;;;;;;;;;;;;5080263;28;853;-78
2022/10/01 11:18:29;;;;;;;;;;;;;;;;;;5080990;28;1955;-78
2022/10/01 11:21:08;;;;;;;;;;;;;;;;;;5080611;28;823;-78
2022/10/01 11:23:46;;;;;;;;;;;;;;;;;;5080542;28;1220;-78
2022/10/01 11:26:20;;;;;;;;;;;;;;;;;;5080339;28;735;-78
2022/10/01 11:28:55;;;;;;;;;;;;;;;;;;5080762;28;898;-79
2022/10/01 11:31:32;;;;;;;;;;;;;;;;;;5080636;28;807;-78
2022/10/01 11:34:10;;;;;;;;;;;;;;;;;;5080509;28;1156;-79
2022/10/01 11:36:35;;;;;;;;;;;;;;;;;;5080203;28;892;-79
2022/10/01 11:39:15;;;;;;;;;;;;;;;;;;5080524;28;1959;-79
2022/10/01 11:41:48;;;;;;;;;;;;;;;;;;5080297;28;841;-78
2022/10/01 11:44:32;;;;;;;;;;;;;;;;;;5082567;28;1243;-79
2022/10/01 11:47:04;;;;;;;;;;;;;;;;;;5083524;28;885;-78
2022/10/01 11:49:41;;;;;;;;;;;;;;;;;;5083820;28;917;-79
2022/10/01 11:52:25;;;;;;;;;;;;;;;;;;5083677;28;826;-79
2022/10/01 11:54:53;;;;;;;;;;;;;;;;;;5082355;28;969;-79
2022/10/01 12:00:05;;;;;;;;;;;;;;;;;;5083994;28;629;-78
2022/10/01 12:02:47;;;;;;;;;;;;;;;;;;5082335;28;1526;-78
2022/10/01 12:05:17;;;;;;;;;;;;;;;;;;5083161;28;838;-78
2022/10/01 12:07:50;;;;;;;;;;;;;;;;;;5083482;28;933;-79
2022/10/01 12:10:30;;;;;;;;;;;;;;;;;;5084031;28;728;-78
2022/10/01 12:13:02;;;;;;;;;;;;;;;;;;5082281;28;1325;-78
2022/10/01 12:15:32;;;;;;;;;;;;;;;;;;5083183;28;882;-78
2022/10/01 12:18:13;;;;;;;;;;;;;;;;;;5083301;28;1980;-78
2022/10/01 12:20:43;;;;;;;;;;;;;;;;;;5083513;28;818;-78
2022/10/01 12:23:13;;;;;;;;;;;;;;;;;;5082940;28;1166;-78
2022/10/01 12:25:48;;;;;;;;;;;;;;;;;;5083113;28;877;-78
2022/10/01 12:28:18;;;;;;;;;;;;;;;;;;5083228;28;811;-78
2022/10/01 12:30:54;;;;;;;;;;;;;;;;;;5083175;28;779;-78
2022/10/01 12:33:30;;;;;;;;;;;;;;;;;;5096272;22;3528;-68
2022/10/01 12:36:02;;;;;;;;;;;;;;;;;;5082163;28;874;-68
2022/10/01 12:39:05;;;;;;;;;;;;;;;;;;5082594;28;1918;-68
2022/10/01 12:41:49;;;;;;;;;;;;;;;;;;5000954;28;1167;-69
2022/10/01 12:44:17;;;;;;;;;;;;;;;;;;5000505;28;1959;-69
2022/10/01 12:47:03;;;;;;;;;;;;;;;;;;5037887;28;1078;-69
2022/10/01 12:49:34;;;;;;;;;;;;;;;;;;5041271;28;1140;-69
2022/10/01 12:52:19;;;;;;;;;;;;;;;;;;5062624;28;917;-69
2022/10/01 12:54:44;;;;;;;;;;;;;;;;;;5054618;28;1198;-69
2022/10/01 12:57:09;;;;;;;;;;;;;;;;;;5062276;28;1893;-69
2022/10/01 12:59:35;;;;;;;;;;;;;;;;;;5062582;28;1052;-69
2022/10/01 13:02:19;;;;;;;;;;;;;;;;;;5062346;28;985;-69
2022/10/01 13:05:05;;;;;;;;;;;;;;;;;;5062361;28;1262;-69
2022/10/01 13:07:49;;;;;;;;;;;;;;;;;;5062426;28;815;-69
2022/10/01 13:10:17;;;;;;;;;;;;;;;;;;5062441;28;803;-69
2022/10/01 13:13:01;;;;;;;;;;;;;;;;;;5062118;28;1349;-69
2022/10/01 13:15:32;;;;;;;;;;;;;;;;;;5061942;28;803;-69
2022/10/01 13:18:04;;;;;;;;;;;;;;;;;;5062072;28;1902;-69
2022/10/01 13:20:42;;;;;;;;;;;;;;;;;;5062347;28;811;-69
2022/10/01 13:23:11;;;;;;;;;;;;;;;;;;5061944;28;1262;-69
2022/10/01 13:25:41;;;;;;;;;;;;;;;;;;5062487;28;838;-69
2022/10/01 13:28:09;;;;;;;;;;;;;;;;;;5062063;28;1055;-69
2022/10/01 13:30:43;;;;;;;;;;;;;;;;;;5062423;28;890;-69
2022/10/01 13:33:28;;;;;;;;;;;;;;;;;;5061629;28;1279;-69
2022/10/01 13:36:01;;;;;;;;;;;;;;;;;;5061972;28;787;-69
2022/10/01 13:38:39;;;;;;;;;;;;;;;;;;5043984;28;1901;-69
2022/10/01 13:41:06;;;;;;;;;;;;;;;;;;5062089;28;768;-69
2022/10/01 13:43:32;;;;;;;;;;;;;;;;;;5061635;28;1183;-69
2022/10/01 13:46:08;;;;;;;;;;;;;;;;;;5061864;28;787;-69
2022/10/01 13:48:34;;;;;;;;;;;;;;;;;;5061580;28;992;-69
2022/10/01 13:51:01;;;;;;;;;;;;;;;;;;5061854;28;849;-69
2022/10/01 13:53:28;;;;;;;;;;;;;;;;;;5060364;28;1215;-69
2022/10/01 13:55:55;;;;;;;;;;;;;;;;;;5060973;28;882;-69
2022/10/01 13:58:30;;;;;;;;;;;;;;;;;;5061666;28;1977;-69
2022/10/01 14:01:00;;;;;;;;;;;;;;;;;;5061553;28;894;-69
2022/10/01 14:03:46;;;;;;;;;;;;;;;;;;5061634;28;1155;-69
2022/10/01 14:06:16;;;;;;;;;;;;;;;;;;5059977;28;1141;-69
2022/10/01 14:09:00;;;;;;;;;;;;;;;;;;5061532;28;857;-69
2022/10/01 14:17:02;;;;;;;;;;;;;;;;;;5061561;28;1890;-69
2022/10/01 14:19:27;;;;;;;;;;;;;;;;;;5061414;28;996;-69
2022/10/01 14:21:55;;;;;;;;;;;;;;;;;;5061966;28;810;-69
2022/10/01 14:24:33;;;;;;;;;;;;;;;;;;5061177;28;1192;-69
2022/10/01 14:27:14;;;;;;;;;;;;;;;;;;5061222;28;862;-69
2022/10/01 14:30:01;;;;;;;;;;;;;;;;;;5061182;28;815;-69
2022/10/01 14:32:35;;;;;;;;;;;;;;;;;;5061266;28;803;-68
2022/10/01 14:35:09;;;;;;;;;;;;;;;;;;5060729;28;1068;-69
2022/10/01 14:37:38;;;;;;;;;;;;;;;;;;5061012;28;1890;-69
2022/10/01 14:40:17;;;;;;;;;;;;;;;;;;5061068;28;839;-69
2022/10/01 14:42:42;;;;;;;;;;;;;;;;;;5061156;28;1250;-69
2022/10/01 14:45:15;;;;;;;;;;;;;;;;;;5060552;28;934;-69
2022/10/01 14:47:40;;;;;;;;;;;;;;;;;;5060953;28;1157;-69
2022/10/01 14:50:17;;;;;;;;;;;;;;;;;;5060837;28;949;-68
2022/10/01 14:52:46;;;;;;;;;;;;;;;;;;5061055;28;1176;-69
2022/10/01 14:55:12;;;;;;;;;;;;;;;;;;5060430;28;862;-69
2022/10/01 14:57:48;;;;;;;;;;;;;;;;;;5060680;28;1949;-69
2022/10/01 15:00:18;;;;;;;;;;;;;;;;;;5060929;28;811;-69
2022/10/01 15:02:48;;;;;;;;;;;;;;;;;;5061063;28;1140;-69
2022/10/01 15:05:19;;;;;;;;;;;;;;;;;;5060336;28;818;-69
2022/10/01 15:07:44;;;;;;;;;;;;;;;;;;5060864;28;823;-69
2022/10/01 15:10:14;;;;;;;;;;;;;;;;;;5060733;28;791;-68
2022/10/01 15:12:42;;;;;;;;;;;;;;;;;;5060518;28;1168;-69
2022/10/01 15:15:19;;;;;;;;;;;;;;;;;;5060138;28;956;-69
2022/10/01 15:17:45;;;;;;;;;;;;;;;;;;5060744;28;1944;-69
2022/10/01 15:20:11;;;;;;;;;;;;;;;;;;5063823;28;849;-68
2022/10/01 15:22:36;;;;;;;;;;;;;;;;;;5064079;28;1169;-69
2022/10/01 15:25:02;;;;;;;;;;;;;;;;;;5063897;28;909;-69
2022/10/01 15:27:27;;;;;;;;;;;;;;;;;;5063897;28;834;-69
2022/10/01 15:29:54;;;;;;;;;;;;;;;;;;5064193;28;810;-69
2022/10/01 15:32:23;;;;;;;;;;;;;;;;;;5063793;28;838;-69
2022/10/01 15:34:51;;;;;;;;;;;;;;;;;;5063626;28;1196;-69
2022/10/01 15:37:19;;;;;;;;;;;;;;;;;;5063760;28;1957;-69
2022/10/01 15:39:47;;;;;;;;;;;;;;;;;;5063835;28;889;-69
2022/10/01 15:42:30;;;;;;;;;;;;;;;;;;5063710;28;993;-69
2022/10/01 15:45:08;;;;;;;;;;;;;;;;;;5063594;28;1298;-69
2022/10/01 15:47:33;;;;;;;;;;;;;;;;;;5063869;28;866;-69
2022/10/01 15:50:14;;;;;;;;;;;;;;;;;;5064014;28;795;-69
2022/10/01 15:52:48;;;;;;;;;;;;;;;;;;5045609;28;2035;-69
2022/10/01 15:55:14;;;;;;;;;;;;;;;;;;5063410;28;878;-69
2022/10/01 15:57:40;;;;;;;;;;;;;;;;;;5063469;28;1955;-69
2022/10/01 16:00:15;;;;;;;;;;;;;;;;;;5063512;28;1156;-69
2022/10/01 16:02:43;;;;;;;;;;;;;;;;;;5063463;28;1174;-69
2022/10/01 16:05:14;;;;;;;;;;;;;;;;;;5063101;28;993;-69
2022/10/01 16:07:40;;;;;;;;;;;;;;;;;;5063497;28;1004;-69
2022/10/01 16:10:26;;;;;;;;;;;;;;;;;;5063412;28;795;-69
2022/10/01 16:12:51;;;;;;;;;;;;;;;;;;5063360;28;1172;-69
2022/10/01 16:15:27;;;;;;;;;;;;;;;;;;5062965;28;993;-69
2022/10/01 16:17:56;;;;;;;;;;;;;;;;;;5063186;28;1886;-68
2022/10/01 16:20:35;;;;;;;;;;;;;;;;;;5063062;28;1098;-68
2022/10/01 16:23:19;;;;;;;;;;;;;;;;;;5063174;28;1274;-69
2022/10/01 16:25:45;;;;;;;;;;;;;;;;;;5062811;28;803;-69
2022/10/01 16:28:24;;;;;;;;;;;;;;;;;;5062974;28;814;-69
2022/10/01 16:30:50;;;;;;;;;;;;;;;;;;5062857;28;985;-69
2022/10/01 16:33:15;;;;;;;;;;;;;;;;;;5062867;28;1274;-69
2022/10/01 16:35:43;;;;;;;;;;;;;;;;;;5062728;28;878;-69
2022/10/01 16:38:08;;;;;;;;;;;;;;;;;;5063029;28;1898;-69
2022/10/01 16:40:37;;;;;;;;;;;;;;;;;;5063438;28;1027;-69
2022/10/01 16:43:03;;;;;;;;;;;;;;;;;;5062686;28;1254;-69
2022/10/01 16:45:32;;;;;;;;;;;;;;;;;;5062874;28;897;-69
2022/10/01 16:47:58;;;;;;;;;;;;;;;;;;5062802;28;807;-69
2022/10/01 16:50:24;;;;;;;;;;;;;;;;;;5062817;28;910;-69
2022/10/01 16:52:53;;;;;;;;;;;;;;;;;;5062735;28;1191;-69
2022/10/01 16:55:21;;;;;;;;;;;;;;;;;;5062411;28;901;-68
2022/10/01 16:57:46;;;;;;;;;;;;;;;;;;5062599;28;1951;-69
2022/10/01 17:00:15;;;;;;;;;;;;;;;;;;5062549;28;934;-69
2022/10/01 17:02:41;;;;;;;;;;;;;;;;;;5062619;28;1267;-69
2022/10/01 17:05:14;;;;;;;;;;;;;;;;;;5062327;28;910;-69
2022/10/01 17:07:39;;;;;;;;;;;;;;;;;;5062423;28;913;-69
2022/10/01 17:10:05;;;;;;;;;;;;;;;;;;5062200;28;834;-69
2022/10/01 17:12:30;;;;;;;;;;;;;;;;;;5062598;28;853;-69
2022/10/01 17:14:55;;;;;;;;;;;;;;;;;;5061955;28;1204;-69
2022/10/01 17:17:20;;;;;;;;;;;;;;;;;;5061093;28;1949;-69
2022/10/01 17:19:46;;;;;;;;;;;;;;;;;;5062078;28;949;-69
2022/10/01 17:22:11;;;;;;;;;;;;;;;;;;5062329;28;989;-69
2022/10/01 17:24:36;;;;;;;;;;;;;;;;;;5062153;28;1196;-69
2022/10/01 17:27:01;;;;;;;;;;;;;;;;;;5062075;28;1117;-69
2022/10/01 17:29:26;;;;;;;;;;;;;;;;;;5062039;28;834;-69
2022/10/01 17:31:51;;;;;;;;;;;;;;;;;;5062083;28;933;-70
2022/10/01 17:34:18;;;;;;;;;;;;;;;;;;5061845;28;1156;-70
2022/10/01 17:36:44;;;;;;;;;;;;;;;;;;5061633;28;822;-70